Time;durP1;ratioP1;P1;durP2;ratioP2;P2;SDS_P1;SDS_P2;PMS_P1;PMS_P2;Temp;Humidity;BMP_temperature;BMP_pressure;BME280_temperature;BME280_humidity;BME280_pressure;Samples;Min_cycle;Max_cycle;Signal;HPM_P1;HPM_P2
2021/02/12 00:01:41;;;;;;;5.1;3.7;;;;;;;-9.9;76.94238;943.9792;;;;
2021/02/12 00:04:06;;;;;;;6.5;2.6;;;;;;;-9.96;76.78711;944.1066;;;;
2021/02/12 00:06:31;;;;;;;3.5;2.4;;;;;;;-10.08;77.00586;944.0552;;;;
2021/02/12 00:08:59;;;;;;;4.1;2.3;;;;;;;-10.21;77.46973;943.9609;;;;
2021/02/12 00:11:34;;;;;;;2.6;2.1;;;;;;;-10.34;77.88965;944.058;;;;
2021/02/12 00:14:00;;;;;;;5.6;2.4;;;;;;;-10.41;78.4541;943.9255;;;;
2021/02/12 00:16:32;;;;;;;2;1.8;;;;;;;-10.37;78.5166;944.0628;;;;
2021/02/12 00:19:01;;;;;;;4.4;2.7;;;;;;;-10.43;78.50293;943.9997;;;;
2021/02/12 00:21:35;;;;;;;3.2;2.2;;;;;;;-10.35;78.49707;943.937;;;;
2021/02/12 00:24:04;;;;;;;4.4;2.3;;;;;;;-10.37;78.48047;944.0197;;;;
2021/02/12 00:26:36;;;;;;;3.8;1.9;;;;;;;-10.36;78.64844;944.0083;;;;
2021/02/12 00:29:07;;;;;;;4;2.6;;;;;;;-10.4;78.81445;944.0281;;;;
2021/02/12 00:31:33;;;;;;;7.8;2.3;;;;;;;-10.39;79.21777;943.9598;;;;
2021/02/12 00:34:02;;;;;;;5.7;3;;;;;;;-10.35;79.15918;943.9636;;;;
2021/02/12 00:36:28;;;;;;;1.4;1.3;;;;;;;-10.28;78.70605;943.9422;;;;
2021/02/12 00:38:55;;;;;;;1.7;1.5;;;;;;;-10.37;78.41895;943.9026;;;;
2021/02/12 00:41:20;;;;;;;3.2;2.1;;;;;;;-10.39;78.34668;943.9562;;;;
2021/02/12 00:43:47;;;;;;;8.6;4.1;;;;;;;-10.48;78.2334;943.9288;;;;
2021/02/12 00:46:11;;;;;;;4.3;2.8;;;;;;;-10.62;78.7832;943.8513;;;;
2021/02/12 00:48:36;;;;;;;11.2;2.9;;;;;;;-10.79;80.31348;943.9085;;;;
2021/02/12 00:51:01;;;;;;;4;2.1;;;;;;;-10.73;81.05176;943.9288;;;;
2021/02/12 00:53:26;;;;;;;5.3;1.4;;;;;;;-10.52;80.75586;943.7637;;;;
2021/02/12 00:55:54;;;;;;;8.4;2.5;;;;;;;-10.42;80.07129;943.8535;;;;
2021/02/12 00:58:19;;;;;;;2.7;1.7;;;;;;;-10.45;79.41211;943.7792;;;;
2021/02/12 01:00:47;;;;;;;2;1.4;;;;;;;-10.34;78.75;943.863;;;;
2021/02/12 01:03:12;;;;;;;3.8;2.2;;;;;;;-10.2;78.22168;943.8506;;;;
2021/02/12 01:05:39;;;;;;;4.5;2.8;;;;;;;-10.27;77.78223;943.9036;;;;
2021/02/12 01:08:07;;;;;;;4.5;2.2;;;;;;;-10.35;77.96582;943.8938;;;;
2021/02/12 01:10:32;;;;;;;4.4;2.3;;;;;;;-10.26;77.9502;943.8312;;;;
2021/02/12 01:13:02;;;;;;;3.4;2.3;;;;;;;-10.26;77.56836;943.746;;;;
2021/02/12 01:15:42;;;;;;;2.9;2.3;;;;;;;-10.29;77.3457;943.7708;;;;
2021/02/12 01:18:07;;;;;;;3.7;2;;;;;;;-10.3;77.08301;943.8792;;;;
2021/02/12 01:20:42;;;;;;;3.3;1.5;;;;;;;-10.37;76.75293;943.875;;;;
2021/02/12 01:23:13;;;;;;;1.8;1.7;;;;;;;-10.48;77.07129;943.8717;;;;
2021/02/12 01:25:39;;;;;;;2.4;2;;;;;;;-10.58;77.31348;943.7985;;;;
2021/02/12 01:28:09;;;;;;;11;2.3;;;;;;;-10.63;77.70508;943.8585;;;;
2021/02/12 01:30:34;;;;;;;2.7;1.6;;;;;;;-10.62;77.48926;943.8923;;;;
2021/02/12 01:33:04;;;;;;;3.8;2.6;;;;;;;-10.62;77.33887;943.8605;;;;
2021/02/12 01:35:41;;;;;;;2.4;2.2;;;;;;;-10.79;77.68652;943.8649;;;;
2021/02/12 01:38:11;;;;;;;3.9;2.5;;;;;;;-10.79;78.20801;943.7495;;;;
2021/02/12 01:40:37;;;;;;;3.6;1.6;;;;;;;-10.63;78.11719;943.8369;;;;
2021/02/12 01:43:07;;;;;;;2.9;1.9;;;;;;;-10.51;77.8916;943.8833;;;;
2021/02/12 01:45:45;;;;;;;2.9;2.3;;;;;;;-10.41;77.95215;943.8801;;;;
2021/02/12 01:48:14;;;;;;;2.5;1.8;;;;;;;-10.42;77.3877;943.8381;;;;
2021/02/12 01:50:41;;;;;;;2.6;1.5;;;;;;;-10.41;76.9873;943.8535;;;;
2021/02/12 01:53:08;;;;;;;2.9;2;;;;;;;-10.5;77.23047;943.7651;;;;
2021/02/12 01:55:33;;;;;;;2.4;1.9;;;;;;;-10.43;77.44922;943.8141;;;;
2021/02/12 01:58:00;;;;;;;4.5;2.1;;;;;;;-10.55;77.31836;943.745;;;;
2021/02/12 02:00:25;;;;;;;3.4;2.8;;;;;;;-10.63;78.19336;943.699;;;;
2021/02/12 02:02:52;;;;;;;3.7;2.1;;;;;;;-10.5;78.48047;943.7523;;;;
2021/02/12 02:05:17;;;;;;;3;2.7;;;;;;;-10.55;78.41504;943.6865;;;;
2021/02/12 02:07:44;;;;;;;1.8;1.7;;;;;;;-10.76;78.59277;943.6561;;;;
2021/02/12 02:10:09;;;;;;;3.2;1.8;;;;;;;-10.65;78.95898;943.634;;;;
2021/02/12 02:12:39;;;;;;;2.4;1.8;;;;;;;-10.47;78.70215;943.4357;;;;
2021/02/12 02:15:04;;;;;;;2.1;1.7;;;;;;;-10.34;77.99902;943.4525;;;;
2021/02/12 02:17:42;;;;;;;1.8;1.2;;;;;;;-10.43;77.59082;943.6083;;;;
2021/02/12 02:20:07;;;;;;;3.3;2.2;;;;;;;-10.44;77.34961;943.4975;;;;
2021/02/12 02:22:33;;;;;;;1.7;1.3;;;;;;;-10.43;77.19922;943.4528;;;;
2021/02/12 02:24:58;;;;;;;2.5;1.7;;;;;;;-10.51;77.19629;943.6139;;;;
2021/02/12 02:27:25;;;;;;;2.7;2;;;;;;;-10.52;77.19336;943.459;;;;
2021/02/12 02:29:55;;;;;;;2.2;1.8;;;;;;;-10.52;77.25879;943.6069;;;;
2021/02/12 02:32:20;;;;;;;2;1.6;;;;;;;-10.54;77.18945;943.4911;;;;
2021/02/12 02:34:45;;;;;;;4.4;1.8;;;;;;;-10.51;77.16406;943.6016;;;;
2021/02/12 02:37:10;;;;;;;2.1;1.9;;;;;;;-10.5;76.92676;943.5;;;;
2021/02/12 02:39:35;;;;;;;5.3;1.8;;;;;;;-10.67;77.03418;943.6259;;;;
2021/02/12 02:42:00;;;;;;;2.2;1.6;;;;;;;-10.7;77.41113;943.6066;;;;
2021/02/12 02:44:25;;;;;;;1.8;1.2;;;;;;;-10.89;77.58105;943.6406;;;;
2021/02/12 02:46:51;;;;;;;3.5;2.4;;;;;;;-10.95;77.69727;943.6219;;;;
2021/02/12 02:49:16;;;;;;;1.4;1.2;;;;;;;-10.92;77.5;943.6622;;;;
2021/02/12 02:51:42;;;;;;;2.2;1.8;;;;;;;-10.89;77.625;943.658;;;;
2021/02/12 02:54:07;;;;;;;4.3;1.5;;;;;;;-10.97;77.5332;943.6055;;;;
2021/02/12 02:56:38;;;;;;;2.2;1.2;;;;;;;-11.11;77.81152;943.6514;;;;
2021/02/12 02:59:01;;;;;;;2.1;1.6;;;;;;;-11.32;78.33398;943.6775;;;;
2021/02/12 03:01:27;;;;;;;2.8;2;;;;;;;-11.41;79.27051;943.624;;;;
2021/02/12 03:03:53;;;;;;;6.6;2.3;;;;;;;-11.25;79.67969;943.6537;;;;
2021/02/12 03:06:18;;;;;;;1.2;1.1;;;;;;;-11.17;79.36133;943.7188;;;;
2021/02/12 03:08:43;;;;;;;2.4;1.6;;;;;;;-11.15;78.93066;943.7131;;;;
2021/02/12 03:11:08;;;;;;;5.4;2;;;;;;;-11.17;78.61328;943.5901;;;;
2021/02/12 03:13:38;;;;;;;1.4;1.3;;;;;;;-11.15;78.74609;943.6188;;;;
2021/02/12 03:16:04;;;;;;;2.1;1.5;;;;;;;-11.1;78.5293;943.7263;;;;
2021/02/12 03:18:29;;;;;;;1.8;1.7;;;;;;;-11.18;78.13379;943.7803;;;;
2021/02/12 03:20:56;;;;;;;2;1.4;;;;;;;-11.29;78.79492;943.6841;;;;
2021/02/12 03:23:25;;;;;;;2;1.3;;;;;;;-11.24;78.64063;943.7296;;;;
2021/02/12 03:25:50;;;;;;;4.3;2.4;;;;;;;-11.27;78.63574;943.6563;;;;
2021/02/12 03:28:19;;;;;;;3.7;1.6;;;;;;;-11.13;78.50977;943.7325;;;;
2021/02/12 03:30:49;;;;;;;4.2;1.7;;;;;;;-11.11;78.69043;943.6852;;;;
2021/02/12 03:33:15;;;;;;;3.4;1.3;;;;;;;-11.06;78.55566;943.621;;;;
2021/02/12 03:35:49;;;;;;;2.2;1.7;;;;;;;-11.03;78.04004;943.7321;;;;
2021/02/12 03:38:17;;;;;;;1.9;1.7;;;;;;;-11.1;78.01758;943.6766;;;;
2021/02/12 03:40:44;;;;;;;2.8;2;;;;;;;-10.99;78.0166;943.641;;;;
2021/02/12 03:43:14;;;;;;;2;1.9;;;;;;;-10.99;78.19043;943.6472;;;;
2021/02/12 03:45:39;;;;;;;2;1.1;;;;;;;-10.95;78.7627;943.6475;;;;
2021/02/12 03:48:07;;;;;;;2.2;1.6;;;;;;;-10.98;78.69238;943.5964;;;;
2021/02/12 03:50:40;;;;;;;3.3;1.9;;;;;;;-11.03;79.36426;943.5891;;;;
2021/02/12 03:53:05;;;;;;;4.4;2.3;;;;;;;-10.92;79.45117;943.6541;;;;
2021/02/12 03:55:30;;;;;;;2;1.5;;;;;;;-10.83;79.28418;943.71;;;;
2021/02/12 03:57:56;;;;;;;3.6;1.9;;;;;;;-10.69;78.79102;943.6403;;;;
2021/02/12 04:02:30;;;;;;;4.3;2.2;;;;;;;-10.9;78.2627;943.6564;;;;
2021/02/12 04:04:55;;;;;;;1.4;1.3;;;;;;;-11.07;78.94629;943.7477;;;;
2021/02/12 04:07:22;;;;;;;3.5;1.2;;;;;;;-11.01;78.94629;943.8027;;;;
2021/02/12 04:09:47;;;;;;;1.1;1;;;;;;;-10.96;78.59668;943.7916;;;;
2021/02/12 04:12:13;;;;;;;1.9;1.7;;;;;;;-10.84;78.39258;943.7731;;;;
2021/02/12 04:14:38;;;;;;;3.8;3.2;;;;;;;-10.83;78.52441;943.673;;;;
2021/02/12 04:17:07;;;;;;;4.2;1.6;;;;;;;-10.81;77.97461;943.7524;;;;
2021/02/12 04:19:41;;;;;;;2.6;1.3;;;;;;;-10.77;77.82031;943.7305;;;;
2021/02/12 04:22:07;;;;;;;5.3;2.2;;;;;;;-10.7;77.95313;943.7388;;;;
2021/02/12 04:24:37;;;;;;;3.8;1.7;;;;;;;-10.61;77.90527;943.684;;;;
2021/02/12 04:27:02;;;;;;;1.7;1.6;;;;;;;-10.42;77.36426;943.6744;;;;
2021/02/12 04:29:32;;;;;;;2.3;1.6;;;;;;;-10.3;76.98535;943.7263;;;;
2021/02/12 04:31:57;;;;;;;3;1.8;;;;;;;-10.52;76.79297;943.7233;;;;
2021/02/12 04:34:30;;;;;;;2.9;2;;;;;;;-10.49;76.86328;943.7631;;;;
2021/02/12 04:36:53;;;;;;;2.8;2;;;;;;;-10.69;77.16309;943.769;;;;
2021/02/12 04:39:21;;;;;;;2.6;2.2;;;;;;;-10.74;77.6084;943.5283;;;;
2021/02/12 04:41:48;;;;;;;4.3;1.6;;;;;;;-10.74;77.43457;943.7015;;;;
2021/02/12 04:44:13;;;;;;;3.7;2.4;;;;;;;-10.73;76.91504;943.5842;;;;
2021/02/12 04:46:39;;;;;;;2.2;1.7;;;;;;;-10.86;76.71777;943.6234;;;;
2021/02/12 04:49:04;;;;;;;1.9;1.5;;;;;;;-10.92;77.22852;943.5663;;;;
2021/02/12 04:51:30;;;;;;;1.6;1.2;;;;;;;-10.91;77.62988;943.5765;;;;
2021/02/12 04:53:55;;;;;;;5.6;1.8;;;;;;;-10.79;77.5127;943.5952;;;;
2021/02/12 04:56:20;;;;;;;3.6;2.7;;;;;;;-10.91;77.62109;943.5966;;;;
2021/02/12 04:58:45;;;;;;;5.7;1.7;;;;;;;-11;77.86426;943.4986;;;;
2021/02/12 05:01:10;;;;;;;2.1;1.8;;;;;;;-11.02;77.75098;943.4363;;;;
2021/02/12 05:03:35;;;;;;;5.7;2.6;;;;;;;-11.13;78.21875;943.5039;;;;
2021/02/12 05:06:00;;;;;;;2.3;2.1;;;;;;;-11.06;78.12207;943.5159;;;;
2021/02/12 05:08:26;;;;;;;3.4;2.3;;;;;;;-10.97;77.8584;943.4774;;;;
2021/02/12 05:10:55;;;;;;;8.9;1.5;;;;;;;-11.08;77.67383;943.351;;;;
2021/02/12 05:13:20;;;;;;;3.5;2.3;;;;;;;-11.21;77.93164;943.4095;;;;
2021/02/12 05:15:48;;;;;;;3.3;2.1;;;;;;;-11.29;78.16406;943.4008;;;;
2021/02/12 05:18:20;;;;;;;9.4;2.4;;;;;;;-11.21;77.68262;943.3488;;;;
2021/02/12 05:20:59;;;;;;;1.5;1.4;;;;;;;-11.34;77.41797;943.3697;;;;
2021/02/12 05:23:34;;;;;;;3.3;2;;;;;;;-11.55;77.55273;943.3409;;;;
2021/02/12 05:26:09;;;;;;;2.4;2;;;;;;;-11.7;78.27246;943.3425;;;;
2021/02/12 05:28:41;;;;;;;2.5;1.7;;;;;;;-11.66;78.58398;943.2559;;;;
2021/02/12 05:31:07;;;;;;;6.9;3.2;;;;;;;-11.56;78.35254;943.2575;;;;
2021/02/12 05:33:32;;;;;;;2;1.8;;;;;;;-11.64;78.16406;943.218;;;;
2021/02/12 05:35:57;;;;;;;3.3;2;;;;;;;-11.63;78.12402;943.2405;;;;
2021/02/12 05:38:22;;;;;;;2.3;1.8;;;;;;;-11.53;77.93652;943.2441;;;;
2021/02/12 05:40:49;;;;;;;2.7;2.1;;;;;;;-11.49;77.40039;943.2573;;;;
2021/02/12 05:43:19;;;;;;;3.2;2.1;;;;;;;-11.49;77.48828;943.1804;;;;
2021/02/12 05:45:44;;;;;;;7.2;2.5;;;;;;;-11.41;77.41602;943.2222;;;;
2021/02/12 05:48:10;;;;;;;3.3;2;;;;;;;-11.47;77.45996;943.2581;;;;
2021/02/12 05:50:35;;;;;;;4.2;2.1;;;;;;;-11.37;77.21777;943.1516;;;;
2021/02/12 05:53:00;;;;;;;1.7;1.6;;;;;;;-11.43;77.19727;943.1741;;;;
2021/02/12 05:55:25;;;;;;;5;2.7;;;;;;;-11.32;76.91406;943.2247;;;;
2021/02/12 05:57:50;;;;;;;9.3;2.3;;;;;;;-11.42;77.49121;943.2078;;;;
2021/02/12 06:00:15;;;;;;;6.7;2;;;;;;;-11.47;77.95801;943.1987;;;;
2021/02/12 06:02:40;;;;;;;3.4;1.5;;;;;;;-11.52;77.96973;943.1462;;;;
2021/02/12 06:05:06;;;;;;;2.8;1.4;;;;;;;-11.41;78.30566;943.2045;;;;
2021/02/12 06:07:31;;;;;;;5.6;2.5;;;;;;;-11.4;78.27539;943.1471;;;;
2021/02/12 06:09:56;;;;;;;3.3;2.6;;;;;;;-11.28;78.60156;943.1713;;;;
2021/02/12 06:12:21;;;;;;;2;1.6;;;;;;;-11.23;78.24414;943.1423;;;;
2021/02/12 06:14:47;;;;;;;3.4;2.6;;;;;;;-11.21;78.19238;943.2425;;;;
2021/02/12 06:17:15;;;;;;;3.8;2.8;;;;;;;-11.11;77.98535;943.2671;;;;
2021/02/12 06:19:45;;;;;;;5.7;3;;;;;;;-11.07;77.76367;943.2926;;;;
2021/02/12 06:22:10;;;;;;;3;2.1;;;;;;;-11;76.91016;943.2347;;;;
2021/02/12 06:24:35;;;;;;;4.8;2.7;;;;;;;-11.15;77.45605;943.215;;;;
2021/02/12 06:27:02;;;;;;;2.9;2.2;;;;;;;-11.24;77.83789;943.3704;;;;
2021/02/12 06:29:27;;;;;;;5.4;1.9;;;;;;;-11.02;77.19727;943.3784;;;;
2021/02/12 06:31:52;;;;;;;5;2.2;;;;;;;-10.84;76.53711;943.4009;;;;
2021/02/12 06:34:18;;;;;;;4.7;3.2;;;;;;;-11.1;76.80469;943.4254;;;;
2021/02/12 06:36:43;;;;;;;2.6;1.9;;;;;;;-11.18;76.96289;943.5323;;;;
2021/02/12 06:39:08;;;;;;;2.4;2.2;;;;;;;-11.34;77.42871;943.5582;;;;
2021/02/12 06:41:33;;;;;;;3.4;2.6;;;;;;;-11.47;76.9502;943.5189;;;;
2021/02/12 06:43:58;;;;;;;2.4;2.2;;;;;;;-11.28;76.5;943.5692;;;;
2021/02/12 06:46:25;;;;;;;6;2.1;;;;;;;-11.39;76.33691;943.5457;;;;
2021/02/12 06:48:50;;;;;;;1.8;1.7;;;;;;;-11.61;76.74023;943.4526;;;;
2021/02/12 06:51:15;;;;;;;3.7;2.4;;;;;;;-11.52;77.40625;943.5656;;;;
2021/02/12 06:53:40;;;;;;;1.7;1.5;;;;;;;-11.51;77.61523;943.584;;;;
2021/02/12 06:56:05;;;;;;;2.3;2.1;;;;;;;-11.28;77.22559;943.5846;;;;
2021/02/12 06:58:33;;;;;;;5;3.2;;;;;;;-11.52;77.31934;943.6603;;;;
2021/02/12 07:00:59;;;;;;;4.5;2.2;;;;;;;-11.46;78.03516;943.6581;;;;
2021/02/12 07:03:24;;;;;;;4;3.3;;;;;;;-11.34;77.09277;943.6648;;;;
2021/02/12 07:05:50;;;;;;;5.8;3.6;;;;;;;-11.02;77.20801;943.6454;;;;
2021/02/12 07:08:16;;;;;;;5.3;2.9;;;;;;;-10.63;77.6084;943.6744;;;;
2021/02/12 07:10:45;;;;;;;11.8;5.2;;;;;;;-10.65;76.69043;943.6678;;;;
2021/02/12 07:13:15;;;;;;;7.1;3.4;;;;;;;-10.08;75.82129;943.6302;;;;
2021/02/12 07:15:40;;;;;;;7.6;3;;;;;;;-10.01;74.99512;943.6433;;;;
2021/02/12 07:18:23;;;;;;;4.2;2.9;;;;;;;-9.49;74.68555;943.5294;;;;
2021/02/12 07:20:53;;;;;;;5.4;3.6;;;;;;;-9.12;73.15039;943.6632;;;;
2021/02/12 07:23:19;;;;;;;4.1;3.4;;;;;;;-9.13;72.35352;943.6063;;;;
2021/02/12 07:25:44;;;;;;;7.6;3.1;;;;;;;-9.14;72.75488;943.6943;;;;
2021/02/12 07:28:09;;;;;;;5.4;3.7;;;;;;;-8.54;69.78223;943.7393;;;;
2021/02/12 07:30:38;;;;;;;7.5;4.3;;;;;;;-8.6;68.99902;943.7303;;;;
2021/02/12 07:33:04;;;;;;;8.9;4.9;;;;;;;-8.22;68.34277;943.7054;;;;
2021/02/12 07:35:29;;;;;;;8;4;;;;;;;-8.09;68.31836;943.5664;;;;
2021/02/12 07:37:54;;;;;;;6.7;3.6;;;;;;;-7.83;66.875;943.68;;;;
2021/02/12 07:40:20;;;;;;;7.4;4.1;;;;;;;-7.76;65.93652;943.691;;;;
2021/02/12 07:42:45;;;;;;;5.3;2.5;;;;;;;-7.66;63.87402;943.6894;;;;
2021/02/12 07:45:12;;;;;;;7.8;4.2;;;;;;;-6.77;62.33398;943.7205;;;;
2021/02/12 07:47:37;;;;;;;4.1;3.4;;;;;;;-7.06;62.33301;943.7178;;;;
2021/02/12 07:50:02;;;;;;;9.4;3.3;;;;;;;-6.88;59.77344;943.707;;;;
2021/02/12 07:52:30;;;;;;;5.5;3;;;;;;;-6.24;58.69238;943.6436;;;;
2021/02/12 07:54:57;;;;;;;7.1;4.1;;;;;;;-5.65;57.65527;943.6283;;;;
2021/02/12 07:57:23;;;;;;;4.5;2.9;;;;;;;-5.17;55.6748;943.6337;;;;
2021/02/12 07:59:49;;;;;;;3.8;3.4;;;;;;;-5.04;55.5498;943.6152;;;;
2021/02/12 08:02:15;;;;;;;6.6;3.8;;;;;;;-4.22;53.27637;943.4838;;;;
2021/02/12 08:04:40;;;;;;;8.6;5.1;;;;;;;-4.07;53.22949;943.5441;;;;
2021/02/12 08:07:05;;;;;;;10.7;6.1;;;;;;;-3.22;49.96582;943.556;;;;
2021/02/12 08:09:31;;;;;;;9.2;5.1;;;;;;;-2.93;49.12793;943.5072;;;;
2021/02/12 08:12:03;;;;;;;7.6;4.3;;;;;;;-2.02;46.10742;943.466;;;;
2021/02/12 08:14:36;;;;;;;12.7;5.4;;;;;;;-1.59;46.40918;943.4602;;;;
2021/02/12 08:17:22;;;;;;;4.8;3.8;;;;;;;-1.26;45.04688;943.4183;;;;
2021/02/12 08:20:04;;;;;;;9.7;4.8;;;;;;;0.31;41.35742;943.3297;;;;
2021/02/12 08:22:37;;;;;;;13.2;5.7;;;;;;;1.09;40.30566;943.3158;;;;
2021/02/12 08:25:04;;;;;;;8.6;4.6;;;;;;;2.67;36.75586;943.2497;;;;
2021/02/12 08:27:34;;;;;;;8.5;4.6;;;;;;;3.02;35.54199;943.2321;;;;
2021/02/12 08:29:59;;;;;;;6.4;3.9;;;;;;;2.75;35.12793;943.2374;;;;
2021/02/12 08:32:27;;;;;;;5.3;3.7;;;;;;;2.77;36.46289;943.2708;;;;
2021/02/12 08:34:52;;;;;;;11.1;4.9;;;;;;;1.18;39.37695;943.2807;;;;
2021/02/12 08:37:22;;;;;;;5.5;4.1;;;;;;;2.44;35.67188;943.1994;;;;
2021/02/12 08:39:53;;;;;;;11.7;5.4;;;;;;;2.75;34.81348;943.1248;;;;
2021/02/12 08:42:18;;;;;;;9.6;4.3;;;;;;;2.4;34.97559;943.1565;;;;
2021/02/12 08:44:46;;;;;;;10.2;4.6;;;;;;;1.37;36.01953;943.1733;;;;
2021/02/12 08:47:11;;;;;;;10.1;5.8;;;;;;;-0.42;39.9502;943.1595;;;;
2021/02/12 08:49:36;;;;;;;7.7;4.6;;;;;;;-1.51;41.92285;943.3052;;;;
2021/02/12 08:52:01;;;;;;;10.8;6.2;;;;;;;-2.36;44.47559;943.3314;;;;
2021/02/12 08:54:26;;;;;;;11.7;4.5;;;;;;;-2.98;46.04492;943.3311;;;;
2021/02/12 08:56:52;;;;;;;5.4;3.7;;;;;;;-3.73;48.8125;943.3038;;;;
2021/02/12 08:59:19;;;;;;;7;3.5;;;;;;;-4.52;51.06738;943.3016;;;;
2021/02/12 09:01:44;;;;;;;6.4;3.5;;;;;;;-4.91;52.34082;943.3176;;;;
2021/02/12 09:04:09;;;;;;;3.4;2.9;;;;;;;-5.57;54.69824;943.3122;;;;
2021/02/12 09:06:37;;;;;;;4.1;3.3;;;;;;;-5.67;55.34473;943.3283;;;;
2021/02/12 09:09:02;;;;;;;9;2.4;;;;;;;-5.72;55.67773;943.3839;;;;
2021/02/12 09:11:27;;;;;;;6.1;3.5;;;;;;;-6.2;58.06152;943.4032;;;;
2021/02/12 09:13:53;;;;;;;3.4;2.5;;;;;;;-6.38;58.33301;943.4048;;;;
2021/02/12 09:16:23;;;;;;;6.6;2.9;;;;;;;-6.93;60.66602;943.3664;;;;
2021/02/12 09:18:53;;;;;;;3.3;2.6;;;;;;;-6.86;61.06934;943.3706;;;;
2021/02/12 09:21:19;;;;;;;6.3;3.4;;;;;;;-6.81;60.83594;943.3887;;;;
2021/02/12 09:23:49;;;;;;;4.6;2.9;;;;;;;-6.58;60.36621;943.3649;;;;
2021/02/12 09:26:19;;;;;;;5.7;2.6;;;;;;;-6.49;60.38867;943.408;;;;
2021/02/12 09:28:45;;;;;;;5.9;3.2;;;;;;;-6.3;59.79297;943.3792;;;;
2021/02/12 09:31:14;;;;;;;4.2;3.8;;;;;;;-5.92;59.20996;943.3499;;;;
2021/02/12 09:33:39;;;;;;;6.6;3.3;;;;;;;-5.48;57.87695;943.3979;;;;
2021/02/12 09:36:09;;;;;;;5.8;3.4;;;;;;;-4.98;56.42676;943.3759;;;;
2021/02/12 09:38:34;;;;;;;5;3;;;;;;;-4.48;54.39941;943.3542;;;;
2021/02/12 09:41:00;;;;;;;8.9;4.1;;;;;;;-3.78;52.72559;943.3251;;;;
2021/02/12 09:43:25;;;;;;;4.8;3;;;;;;;-3.47;51.48145;943.3022;;;;
2021/02/12 09:45:52;;;;;;;5;2.8;;;;;;;-3.6;51.68652;943.2532;;;;
2021/02/12 09:48:18;;;;;;;12.5;3.9;;;;;;;-3.75;52.08984;943.2386;;;;
2021/02/12 09:50:43;;;;;;;11.3;5.2;;;;;;;-3.57;51.80078;943.2712;;;;
2021/02/12 09:53:10;;;;;;;4.4;3;;;;;;;-3.28;51.02051;943.2466;;;;
2021/02/12 09:55:35;;;;;;;8.7;3.5;;;;;;;-3.15;51.11328;943.2809;;;;
2021/02/12 09:58:02;;;;;;;4.4;3;;;;;;;-2.9;50.03809;943.2278;;;;
2021/02/12 10:00:27;;;;;;;4.4;2.9;;;;;;;-2.78;49.44336;943.2456;;;;
2021/02/12 10:02:55;;;;;;;6;3.6;;;;;;;-2.67;49.22363;943.244;;;;
2021/02/12 10:05:20;;;;;;;7.1;2.8;;;;;;;-2.3;48.8457;943.248;;;;
2021/02/12 10:07:45;;;;;;;8.6;3.5;;;;;;;-1.78;47.62012;943.2049;;;;
2021/02/12 10:10:18;;;;;;;6.3;3.1;;;;;;;-1.4;46.65234;943.2274;;;;
2021/02/12 10:12:43;;;;;;;5.2;3;;;;;;;-1.6;46.87402;943.2966;;;;
2021/02/12 10:15:09;;;;;;;5.4;3.4;;;;;;;-1.64;46.55957;943.2816;;;;
2021/02/12 10:17:45;;;;;;;5.8;3.5;;;;;;;-2.19;49.02539;943.3363;;;;
2021/02/12 10:20:11;;;;;;;4.2;2.8;;;;;;;-2.96;50.49512;943.4108;;;;
2021/02/12 10:22:38;;;;;;;4;2.9;;;;;;;-2.96;51.24609;943.2758;;;;
2021/02/12 10:25:13;;;;;;;5.6;2.6;;;;;;;-3.62;52.98828;943.3106;;;;
2021/02/12 10:27:38;;;;;;;10.4;3.2;;;;;;;-4.04;54.60059;943.3519;;;;
2021/02/12 10:30:03;;;;;;;5.7;3.2;;;;;;;-4.44;56.52051;943.3022;;;;
2021/02/12 10:32:34;;;;;;;5.6;3.1;;;;;;;-4.54;57.69727;943.3492;;;;
2021/02/12 10:35:07;;;;;;;9.3;3;;;;;;;-4.59;58.14258;943.3315;;;;
2021/02/12 10:37:35;;;;;;;4.7;2.5;;;;;;;-4.19;57.87891;943.2767;;;;
2021/02/12 10:40:00;;;;;;;6.1;3.7;;;;;;;-3.65;57.77734;943.3347;;;;
2021/02/12 10:42:26;;;;;;;5.2;2.9;;;;;;;-3.42;54.75879;943.3394;;;;
2021/02/12 10:44:52;;;;;;;3.4;2.1;;;;;;;-3.57;55.56836;943.3058;;;;
2021/02/12 10:47:16;;;;;;;6.9;3.4;;;;;;;-3.67;56.91309;943.2414;;;;
2021/02/12 10:49:50;;;;;;;3.5;2.8;;;;;;;-4.09;58.29102;943.3343;;;;
2021/02/12 10:52:15;;;;;;;3.5;2.3;;;;;;;-3.93;59.4043;943.3477;;;;
2021/02/12 10:54:41;;;;;;;4.4;2.6;;;;;;;-3.87;58.63086;943.2852;;;;
2021/02/12 10:57:06;;;;;;;4.9;2.9;;;;;;;-3.93;58.92969;943.2347;;;;
2021/02/12 10:59:32;;;;;;;3.7;2.5;;;;;;;-4.03;58.1875;943.1635;;;;
2021/02/12 11:01:57;;;;;;;3.9;2.4;;;;;;;-3.57;58.03223;943.2491;;;;
2021/02/12 11:04:25;;;;;;;3.7;1.8;;;;;;;-2.91;56.16406;943.1965;;;;
2021/02/12 11:06:50;;;;;;;4.5;2.5;;;;;;;-2.71;56.23535;943.1627;;;;
2021/02/12 11:09:15;;;;;;;4.5;3.4;;;;;;;-2.34;54.22559;943.1138;;;;
2021/02/12 11:11:42;;;;;;;4.8;2.7;;;;;;;-2.16;52.98535;943.06;;;;
2021/02/12 11:14:07;;;;;;;4;2.8;;;;;;;-1.48;53.37012;943.0898;;;;
2021/02/12 11:16:39;;;;;;;5.4;3.1;;;;;;;-1.06;50.96777;943.0224;;;;
2021/02/12 11:19:05;;;;;;;3.2;2.4;;;;;;;-0.59;51.19043;942.9462;;;;
2021/02/12 11:21:30;;;;;;;4.9;3.1;;;;;;;0.59;47.57617;942.9523;;;;
2021/02/12 11:23:59;;;;;;;5.1;3.3;;;;;;;0.73;45.05859;943.0123;;;;
2021/02/12 11:26:24;;;;;;;4.8;3;;;;;;;0.3;47.25293;942.9761;;;;
2021/02/12 11:28:49;;;;;;;4.8;2.5;;;;;;;1.04;46.99023;943.0054;;;;
2021/02/12 11:31:16;;;;;;;4.4;2.7;;;;;;;1.37;44.19922;942.9402;;;;
2021/02/12 11:33:41;;;;;;;4.5;2.4;;;;;;;1.7;43.82031;942.8036;;;;
2021/02/12 11:36:06;;;;;;;4.9;3;;;;;;;2.19;43.06348;942.8748;;;;
2021/02/12 11:38:31;;;;;;;4;2.5;;;;;;;2.28;41.65137;942.8513;;;;
2021/02/12 11:40:56;;;;;;;3.9;2.5;;;;;;;3.26;40.37793;942.7606;;;;
2021/02/12 11:43:22;;;;;;;5.5;3.1;;;;;;;3.24;40.35352;942.7698;;;;
2021/02/12 11:45:51;;;;;;;4.5;2.1;;;;;;;3.04;41.45605;942.8017;;;;
2021/02/12 11:48:17;;;;;;;3.8;2.4;;;;;;;4.18;39.45215;942.8478;;;;
2021/02/12 11:50:44;;;;;;;3.1;1.5;;;;;;;5.65;35.99902;942.7138;;;;
2021/02/12 11:53:09;;;;;;;2.5;1.7;;;;;;;5.36;35.36523;942.71;;;;
2021/02/12 11:55:34;;;;;;;2.3;1.6;;;;;;;5.87;35.39648;942.7731;;;;
2021/02/12 11:58:02;;;;;;;1.9;1.7;;;;;;;6.3;35.11621;942.7986;;;;
2021/02/12 12:00:26;;;;;;;2;1.8;;;;;;;6.28;33.57617;942.816;;;;
2021/02/12 12:02:51;;;;;;;6.6;1.8;;;;;;;6.9;32.77637;942.7812;;;;
2021/02/12 12:05:17;;;;;;;3.9;1.8;;;;;;;6.94;31.99805;942.7841;;;;
2021/02/12 12:07:42;;;;;;;1.7;1.4;;;;;;;7.73;31.78418;942.8187;;;;
2021/02/12 12:10:11;;;;;;;6.7;1.9;;;;;;;6.89;31.46191;942.8189;;;;
2021/02/12 12:12:36;;;;;;;1.9;1.4;;;;;;;6.9;32.0293;942.843;;;;
2021/02/12 12:15:01;;;;;;;2.3;1.5;;;;;;;6.56;32.35352;942.8635;;;;
2021/02/12 12:17:26;;;;;;;2.2;1.8;;;;;;;6.55;33.63184;942.837;;;;
2021/02/12 12:19:53;;;;;;;3.5;1.8;;;;;;;6.66;32.83691;942.7806;;;;
2021/02/12 12:22:18;;;;;;;1.9;1.2;;;;;;;7.46;32.12695;942.7612;;;;
2021/02/12 12:24:44;;;;;;;2.9;1.9;;;;;;;7.18;31.81152;942.7566;;;;
2021/02/12 12:27:09;;;;;;;2.3;1.7;;;;;;;8.16;29.60156;942.741;;;;
2021/02/12 12:29:37;;;;;;;1.7;1.3;;;;;;;9;28.7959;942.7867;;;;
2021/02/12 12:32:02;;;;;;;4.1;2.3;;;;;;;8.71;29.18457;942.7153;;;;
2021/02/12 12:34:31;;;;;;;2.6;1.8;;;;;;;8.39;29.12988;942.7658;;;;
2021/02/12 12:36:56;;;;;;;2.4;1.4;;;;;;;9.3;28.62207;942.7516;;;;
2021/02/12 12:39:21;;;;;;;3.8;2;;;;;;;9.91;28.05762;942.7155;;;;
2021/02/12 12:41:46;;;;;;;5;1.9;;;;;;;9.09;28.60742;942.7054;;;;
2021/02/12 12:44:15;;;;;;;4.9;1.6;;;;;;;9.09;28.83496;942.6617;;;;
2021/02/12 12:46:41;;;;;;;2.3;1.5;;;;;;;7.37;31.40625;942.7416;;;;
2021/02/12 12:49:07;;;;;;;2.9;2;;;;;;;8.4;29.87891;942.7294;;;;
2021/02/12 12:51:31;;;;;;;2.5;1.8;;;;;;;8.44;30.26953;942.6713;;;;
2021/02/12 12:53:59;;;;;;;6.1;1.5;;;;;;;9.21;28.42285;942.6933;;;;
2021/02/12 12:56:25;;;;;;;2.6;1.9;;;;;;;9.13;28.98633;942.6277;;;;
2021/02/12 12:58:52;;;;;;;4.1;2.4;;;;;;;9;29.15918;942.742;;;;
2021/02/12 13:01:19;;;;;;;2.4;1.5;;;;;;;7.54;30.75;942.6613;;;;
2021/02/12 13:03:45;;;;;;;1.9;1.7;;;;;;;7.6;31.42285;942.6866;;;;
2021/02/12 13:06:10;;;;;;;3.6;1.8;;;;;;;7.46;31.10742;942.6558;;;;
2021/02/12 13:08:35;;;;;;;1.8;1.4;;;;;;;7.42;31.35352;942.6365;;;;
2021/02/12 13:11:00;;;;;;;2.1;1.7;;;;;;;7.26;31.59082;942.6086;;;;
2021/02/12 13:13:25;;;;;;;1.8;1.7;;;;;;;6.19;33.72754;942.6121;;;;
2021/02/12 13:15:53;;;;;;;2.8;1.7;;;;;;;6.66;33.45898;942.6144;;;;
2021/02/12 13:18:17;;;;;;;1.3;1.1;;;;;;;6.16;34.3125;942.5461;;;;
2021/02/12 13:20:43;;;;;;;6;2;;;;;;;5.66;34.98438;942.5839;;;;
2021/02/12 13:23:08;;;;;;;2;1.5;;;;;;;5.82;34.28516;942.6096;;;;
2021/02/12 13:25:36;;;;;;;3.6;1.7;;;;;;;6.19;34.93652;942.6894;;;;
2021/02/12 13:28:03;;;;;;;6.7;2.1;;;;;;;6.79;34.08008;942.6177;;;;
2021/02/12 13:30:29;;;;;;;2.8;2;;;;;;;7.43;32.46484;942.5661;;;;
2021/02/12 13:32:56;;;;;;;3.3;1.8;;;;;;;7.04;33.22852;942.5505;;;;
2021/02/12 13:35:23;;;;;;;2.4;1.4;;;;;;;7.32;32.69434;942.6309;;;;
2021/02/12 13:37:48;;;;;;;3.9;2.1;;;;;;;6.8;33.39063;942.6678;;;;
2021/02/12 13:40:15;;;;;;;3.7;1.8;;;;;;;7.16;33.33984;942.6713;;;;
2021/02/12 13:42:40;;;;;;;1.6;1.5;;;;;;;6.08;34.10352;942.7009;;;;
2021/02/12 13:45:07;;;;;;;3.1;1.6;;;;;;;4.5;37.07227;942.6916;;;;
2021/02/12 13:47:32;;;;;;;2.9;1.7;;;;;;;5.74;35.78125;942.7004;;;;
2021/02/12 13:49:57;;;;;;;2.7;1.8;;;;;;;4.63;36.71289;942.7569;;;;
2021/02/12 13:52:23;;;;;;;3.2;2;;;;;;;4.48;37.93848;942.7383;;;;
2021/02/12 13:54:49;;;;;;;3;1.9;;;;;;;4.54;37.74121;942.6713;;;;
2021/02/12 13:57:14;;;;;;;3.8;2.1;;;;;;;4.69;37.69824;942.7245;;;;
2021/02/12 13:59:42;;;;;;;4.2;2.9;;;;;;;5.47;36.36719;942.7419;;;;
2021/02/12 14:02:09;;;;;;;2.8;1.9;;;;;;;5.82;36.05859;942.6355;;;;
2021/02/12 14:04:32;;;;;;;1.2;1.1;;;;;;;4.72;37.76855;942.7543;;;;
2021/02/12 14:06:58;;;;;;;2.2;1.6;;;;;;;4.85;37.98242;942.7475;;;;
2021/02/12 14:09:23;;;;;;;3.3;1.3;;;;;;;5.09;36.98926;942.692;;;;
2021/02/12 14:11:48;;;;;;;4.2;2.1;;;;;;;4.48;38.02832;942.747;;;;
2021/02/12 14:14:15;;;;;;;3.3;2.1;;;;;;;4.63;37.60156;942.6503;;;;
2021/02/12 14:16:41;;;;;;;2.8;1.6;;;;;;;4.17;39.63184;942.7845;;;;
2021/02/12 14:19:06;;;;;;;2.8;1.6;;;;;;;4.22;39.55762;942.7797;;;;
2021/02/12 14:21:32;;;;;;;2.4;1.6;;;;;;;4.95;38.39648;942.7748;;;;
2021/02/12 14:23:57;;;;;;;3.3;2.5;;;;;;;4.8;37.77539;942.7745;;;;